createdAt,value
2018-09-26T00:00:48.359Z,2.80
2018-09-26T00:03:25.760Z,2.30
2018-09-26T00:05:54.004Z,2.92
2018-09-26T00:08:22.062Z,3.17
2018-09-26T00:10:51.359Z,2.62
2018-09-26T00:13:19.454Z,2.95
2018-09-26T00:15:47.544Z,2.52
2018-09-26T00:18:15.564Z,2.90
2018-09-26T00:20:43.544Z,2.55
2018-09-26T00:23:11.698Z,2.45
2018-09-26T00:25:39.802Z,3.20
2018-09-26T00:28:07.790Z,3.83
2018-09-26T00:30:35.961Z,3.00
2018-09-26T00:33:04.483Z,2.80
2018-09-26T00:35:32.543Z,2.95
2018-09-26T00:38:00.736Z,3.17
2018-09-26T00:40:28.788Z,4.17
2018-09-26T00:42:56.881Z,3.15
2018-09-26T00:45:24.960Z,3.85
2018-09-26T00:47:53.015Z,3.52
2018-09-26T00:50:20.963Z,3.45
2018-09-26T00:52:49.206Z,3.70
2018-09-26T00:55:17.100Z,3.70
2018-09-26T00:57:45.309Z,3.95
2018-09-26T01:00:13.272Z,4.25
2018-09-26T01:02:41.830Z,20.80
2018-09-26T01:05:10.181Z,22.07
2018-09-26T01:07:38.227Z,19.17
2018-09-26T01:10:06.304Z,15.13
2018-09-26T01:12:34.216Z,10.32
2018-09-26T01:15:02.056Z,6.45
2018-09-26T01:17:32.343Z,5.25
2018-09-26T01:20:00.367Z,5.22
2018-09-26T01:22:28.395Z,3.95
2018-09-26T01:24:56.524Z,4.92
2018-09-26T01:27:24.721Z,4.12
2018-09-26T01:29:53.968Z,4.05
2018-09-26T01:32:21.923Z,3.60
2018-09-26T01:34:50.053Z,3.58
2018-09-26T01:37:18.218Z,3.67
2018-09-26T01:39:46.485Z,3.42
2018-09-26T01:42:14.571Z,3.55
2018-09-26T01:44:42.657Z,3.70
2018-09-26T01:47:10.696Z,3.67
2018-09-26T01:49:38.675Z,3.50
2018-09-26T01:52:06.732Z,4.60
2018-09-26T01:54:34.948Z,3.72
2018-09-26T01:57:03.012Z,2.98
2018-09-26T01:59:31.129Z,3.72
2018-09-26T02:01:59.121Z,4.37
2018-09-26T02:04:27.205Z,4.35
2018-09-26T02:06:55.290Z,3.92
2018-09-26T02:09:23.346Z,4.10
2018-09-26T02:11:51.453Z,3.72
2018-09-26T02:14:19.485Z,5.65
2018-09-26T02:16:47.460Z,3.95
2018-09-26T02:19:15.612Z,4.08
2018-09-26T02:21:43.786Z,3.80
2018-09-26T02:24:11.691Z,4.40
2018-09-26T02:26:39.858Z,3.87
2018-09-26T02:29:08.080Z,3.70
2018-09-26T02:31:36.310Z,3.20
2018-09-26T02:34:04.296Z,3.65
2018-09-26T02:36:32.425Z,3.90
2018-09-26T02:39:00.425Z,3.72
2018-09-26T02:41:28.572Z,3.60
2018-09-26T02:43:56.692Z,3.98
2018-09-26T02:46:24.645Z,4.75
2018-09-26T02:48:58.151Z,7.25
2018-09-26T02:51:26.148Z,3.45
2018-09-26T02:53:54.162Z,4.33
2018-09-26T02:56:24.438Z,4.00
2018-09-26T02:58:52.426Z,3.40
2018-09-26T03:01:20.525Z,4.17
2018-09-26T03:03:48.723Z,4.37
2018-09-26T03:06:17.280Z,4.00
2018-09-26T03:08:45.127Z,3.90
2018-09-26T03:11:13.207Z,3.40
2018-09-26T03:13:41.553Z,4.25
2018-09-26T03:16:09.585Z,3.67
2018-09-26T03:18:38.511Z,3.65
2018-09-26T03:21:06.655Z,4.05
2018-09-26T03:23:34.700Z,4.60
2018-09-26T03:26:02.797Z,4.78
2018-09-26T03:28:30.780Z,3.65
2018-09-26T03:30:58.991Z,4.28
2018-09-26T03:33:27.016Z,4.90
2018-09-26T03:35:55.058Z,4.83
2018-09-26T03:38:23.211Z,5.20
2018-09-26T03:40:51.503Z,4.45
2018-09-26T03:43:19.491Z,4.55
2018-09-26T03:45:47.541Z,5.37
2018-09-26T03:48:15.724Z,6.60
2018-09-26T03:50:45.026Z,4.33
2018-09-26T03:53:13.179Z,4.85
2018-09-26T03:55:41.502Z,8.23
2018-09-26T03:58:09.535Z,4.70
2018-09-26T04:00:37.667Z,6.95
2018-09-26T04:03:05.807Z,5.22
2018-09-26T04:05:34.072Z,5.60
2018-09-26T04:08:02.161Z,4.35
2018-09-26T04:10:30.230Z,4.25
2018-09-26T04:12:58.220Z,4.28
2018-09-26T04:15:26.886Z,4.37
2018-09-26T04:17:55.021Z,4.00
2018-09-26T04:20:23.144Z,4.08
2018-09-26T04:22:51.193Z,5.37
2018-09-26T04:25:19.295Z,5.22
2018-09-26T04:27:47.688Z,4.97
2018-09-26T04:30:15.734Z,5.55
2018-09-26T04:32:43.810Z,5.15
2018-09-26T04:35:11.831Z,5.30
2018-09-26T04:37:39.999Z,5.70
2018-09-26T04:40:08.009Z,6.10
2018-09-26T04:42:35.936Z,6.35
2018-09-26T04:45:05.254Z,6.20
2018-09-26T04:47:33.443Z,8.63
2018-09-26T04:50:01.533Z,6.60
2018-09-26T04:52:29.585Z,7.25
2018-09-26T04:54:57.647Z,12.23
2018-09-26T04:57:25.628Z,8.60
2018-09-26T04:59:53.855Z,7.72
2018-09-26T05:02:21.842Z,8.10
2018-09-26T05:04:49.934Z,7.17
2018-09-26T05:07:18.141Z,6.55
2018-09-26T05:09:46.400Z,9.45
2018-09-26T05:12:14.477Z,11.12
2018-09-26T05:14:42.431Z,7.85
2018-09-26T05:17:10.633Z,7.22
2018-09-26T05:19:38.687Z,7.80
2018-09-26T05:22:06.928Z,14.05
2018-09-26T05:24:35.128Z,5.92
2018-09-26T05:27:03.067Z,5.00
2018-09-26T05:29:31.261Z,9.25
2018-09-26T05:31:59.353Z,7.40
2018-09-26T05:34:27.406Z,7.50
2018-09-26T05:36:55.492Z,7.87
2018-09-26T05:39:23.567Z,6.83
2018-09-26T05:41:51.716Z,8.13
2018-09-26T05:44:19.733Z,9.60
2018-09-26T05:46:47.695Z,9.45
2018-09-26T05:49:15.828Z,8.65
2018-09-26T05:51:43.816Z,8.48
2018-09-26T05:54:12.468Z,8.28
2018-09-26T05:56:40.680Z,17.02
2018-09-26T05:59:08.633Z,7.90
2018-09-26T06:01:36.869Z,6.65
2018-09-26T06:04:04.808Z,8.13
2018-09-26T06:06:32.936Z,7.97
2018-09-26T06:09:01.012Z,10.08
2018-09-26T06:11:28.980Z,10.85
2018-09-26T06:13:57.704Z,11.45
2018-09-26T06:16:25.817Z,7.20
2018-09-26T06:18:54.087Z,13.03
2018-09-26T06:21:22.273Z,12.40
2018-09-26T06:23:50.375Z,10.43
2018-09-26T06:26:18.759Z,7.00
2018-09-26T06:28:46.788Z,10.23
2018-09-26T06:31:14.787Z,12.10
2018-09-26T06:33:42.965Z,13.83
2018-09-26T06:36:11.379Z,11.28
2018-09-26T06:38:39.408Z,21.05
2018-09-26T06:41:07.510Z,12.93
2018-09-26T06:43:35.597Z,13.15
2018-09-26T06:46:03.603Z,17.95
2018-09-26T06:48:31.672Z,21.77
2018-09-26T06:50:59.676Z,11.03
2018-09-26T06:53:27.840Z,8.23
2018-09-26T06:55:55.891Z,7.83
2018-09-26T06:58:24.280Z,7.30
2018-09-26T07:00:52.343Z,19.63
2018-09-26T07:03:20.336Z,9.60
2018-09-26T07:05:48.533Z,14.43
2018-09-26T07:08:16.463Z,9.00
2018-09-26T07:10:45.014Z,6.20
2018-09-26T07:13:13.292Z,10.83
2018-09-26T07:15:41.396Z,5.80
2018-09-26T07:18:09.381Z,7.03
2018-09-26T07:20:37.597Z,7.53
2018-09-26T07:23:05.648Z,4.97
2018-09-26T07:25:33.684Z,7.93
2018-09-26T07:28:01.740Z,6.40
2018-09-26T07:30:32.004Z,5.93
2018-09-26T07:33:00.082Z,6.57
2018-09-26T07:35:28.083Z,7.80
2018-09-26T07:37:56.188Z,5.70
2018-09-26T07:40:24.241Z,4.30
2018-09-26T07:42:52.439Z,5.33
2018-09-26T07:45:20.740Z,7.07
2018-09-26T07:47:48.799Z,5.20
2018-09-26T07:50:16.854Z,5.77
2018-09-26T07:52:46.153Z,4.83
2018-09-26T07:55:14.233Z,9.47
2018-09-26T07:57:42.220Z,4.60
2018-09-26T08:00:10.268Z,4.10
2018-09-26T08:02:38.403Z,12.13
2018-09-26T08:05:06.564Z,5.43
2018-09-26T08:07:34.612Z,5.20
2018-09-26T08:10:02.603Z,4.70
2018-09-26T08:12:30.646Z,6.13
2018-09-26T08:14:58.665Z,23.63
2018-09-26T08:17:26.868Z,8.20
2018-09-26T08:19:55.208Z,4.57
2018-09-26T08:22:23.296Z,6.80
2018-09-26T08:24:51.777Z,6.53
2018-09-26T08:27:20.050Z,8.83
2018-09-26T08:29:48.054Z,6.10
2018-09-26T08:32:17.640Z,4.23
2018-09-26T08:34:45.709Z,4.03
2018-09-26T08:37:13.872Z,4.40
2018-09-26T08:39:41.862Z,3.73
2018-09-26T08:42:09.873Z,3.50
2018-09-26T08:44:38.175Z,5.07
2018-09-26T08:47:07.108Z,4.23
2018-09-26T08:49:35.136Z,4.90
2018-09-26T08:52:03.223Z,8.57
2018-09-26T08:54:31.286Z,6.20
2018-09-26T08:57:00.239Z,4.23
2018-09-26T08:59:28.218Z,2.93
2018-09-26T09:01:56.438Z,9.67
2018-09-26T09:04:24.503Z,7.43
2018-09-26T09:06:52.622Z,6.67
2018-09-26T09:09:21.860Z,5.43
2018-09-26T09:11:49.949Z,2.80
2018-09-26T09:14:18.095Z,4.12
2018-09-26T09:16:46.063Z,5.15
2018-09-26T09:19:14.196Z,4.92
2018-09-26T09:21:43.447Z,12.35
2018-09-26T09:24:11.582Z,2.52
2018-09-26T09:26:39.597Z,7.80
2018-09-26T09:29:07.756Z,8.13
2018-09-26T09:31:35.519Z,3.05
2018-09-26T09:34:03.799Z,7.53
2018-09-26T09:36:32.851Z,7.60
2018-09-26T09:39:02.241Z,2.63
2018-09-26T09:41:30.031Z,8.67
2018-09-26T09:43:57.840Z,2.50
2018-09-26T09:46:25.917Z,10.10
2018-09-26T09:48:53.999Z,2.00
2018-09-26T09:51:22.250Z,3.10
2018-09-26T09:53:50.555Z,10.77
2018-09-26T09:56:18.634Z,5.73
2018-09-26T09:58:46.674Z,7.77
2018-09-26T10:01:20.213Z,4.00
2018-09-26T10:03:50.231Z,2.83
2018-09-26T10:06:18.251Z,11.23
2018-09-26T10:08:46.476Z,7.10
2018-09-26T10:11:14.728Z,5.67
2018-09-26T10:13:44.472Z,7.93
2018-09-26T10:16:12.748Z,6.20
2018-09-26T10:18:40.694Z,3.90
2018-09-26T10:21:08.895Z,5.63
2018-09-26T10:23:36.876Z,6.50
2018-09-26T10:26:05.147Z,2.43
2018-09-26T10:28:33.368Z,2.53
2018-09-26T10:31:01.339Z,2.30
2018-09-26T10:33:29.330Z,3.53
2018-09-26T10:35:57.634Z,1.70
2018-09-26T10:38:25.771Z,3.90
2018-09-26T10:40:53.782Z,1.60
2018-09-26T10:43:21.810Z,2.20
2018-09-26T10:45:49.886Z,3.63
2018-09-26T10:48:17.839Z,2.20
2018-09-26T10:50:46.001Z,2.00
2018-09-26T10:53:14.107Z,2.07
2018-09-26T10:55:42.148Z,2.20
2018-09-26T10:58:10.324Z,4.03
2018-09-26T11:00:38.727Z,2.50
2018-09-26T11:03:07.071Z,4.07
2018-09-26T11:05:35.668Z,3.90
2018-09-26T11:08:03.422Z,2.13
2018-09-26T11:10:31.528Z,3.10
2018-09-26T11:12:59.594Z,4.30
2018-09-26T11:15:27.456Z,3.80
2018-09-26T11:17:55.433Z,2.20
2018-09-26T11:20:23.610Z,5.87
2018-09-26T11:22:51.848Z,3.35
2018-09-26T11:25:19.908Z,3.55
2018-09-26T11:27:47.900Z,2.50
2018-09-26T11:30:16.068Z,3.10
2018-09-26T11:32:44.153Z,2.30
2018-09-26T11:35:12.220Z,5.67
2018-09-26T11:37:40.276Z,4.03
2018-09-26T11:40:08.329Z,4.08
2018-09-26T11:42:36.389Z,2.20
2018-09-26T11:45:04.619Z,3.40
2018-09-26T11:47:32.857Z,8.40
2018-09-26T11:50:00.961Z,2.37
2018-09-26T11:52:34.328Z,2.42
2018-09-26T11:55:02.664Z,4.00
2018-09-26T11:57:30.572Z,4.27
2018-09-26T11:59:58.760Z,2.12
2018-09-26T12:02:26.932Z,2.67
2018-09-26T12:04:54.973Z,2.10
2018-09-26T12:07:22.989Z,7.63
2018-09-26T12:09:51.056Z,3.23
2018-09-26T12:12:19.191Z,1.97
2018-09-26T12:14:47.067Z,7.27
2018-09-26T12:17:15.285Z,2.27
2018-09-26T12:19:44.155Z,2.90
2018-09-26T12:22:12.436Z,2.05
2018-09-26T12:24:40.311Z,2.30
2018-09-26T12:27:08.506Z,5.95
2018-09-26T12:29:36.520Z,2.83
2018-09-26T12:32:04.624Z,5.60
2018-09-26T12:34:32.708Z,3.58
2018-09-26T12:37:00.800Z,2.17
2018-09-26T12:39:28.836Z,2.30
2018-09-26T12:41:56.888Z,2.50
2018-09-26T12:44:25.403Z,3.42
2018-09-26T12:46:53.263Z,6.30
2018-09-26T12:49:22.392Z,4.97
2018-09-26T12:51:50.404Z,2.10
2018-09-26T12:54:18.461Z,1.60
2018-09-26T12:56:46.223Z,2.95
2018-09-26T12:59:14.296Z,1.95
2018-09-26T13:01:42.393Z,1.87
2018-09-26T13:04:10.413Z,2.42
2018-09-26T13:06:38.537Z,2.80
2018-09-26T13:09:06.508Z,3.65
2018-09-26T13:11:34.719Z,2.37
2018-09-26T13:14:02.716Z,5.37
2018-09-26T13:16:30.692Z,2.00
2018-09-26T13:18:58.943Z,3.33
2018-09-26T13:21:26.940Z,1.52
2018-09-26T13:23:55.047Z,3.70
2018-09-26T13:26:23.081Z,2.12
2018-09-26T13:28:51.212Z,6.37
2018-09-26T13:31:19.239Z,2.67
2018-09-26T13:33:47.374Z,1.95
2018-09-26T13:36:15.377Z,3.55
2018-09-26T13:38:43.452Z,2.90
2018-09-26T13:41:11.524Z,2.10
2018-09-26T13:43:39.591Z,2.17
2018-09-26T13:46:07.726Z,5.72
2018-09-26T13:48:35.715Z,2.58
2018-09-26T13:51:03.765Z,1.37
2018-09-26T13:53:31.764Z,4.25
2018-09-26T13:55:59.956Z,2.33
2018-09-26T13:58:28.044Z,1.50
2018-09-26T14:00:56.109Z,3.08
2018-09-26T14:03:24.173Z,2.05
2018-09-26T14:05:52.217Z,1.65
2018-09-26T14:08:20.367Z,3.30
2018-09-26T14:10:48.445Z,3.60
2018-09-26T14:13:16.353Z,3.80
2018-09-26T14:15:44.570Z,6.58
2018-09-26T14:18:12.617Z,2.20
2018-09-26T14:20:40.708Z,3.02
2018-09-26T14:23:08.796Z,1.75
2018-09-26T14:25:36.958Z,1.85
2018-09-26T14:28:05.172Z,1.72
2018-09-26T14:30:33.252Z,2.50
2018-09-26T14:33:01.332Z,3.17
2018-09-26T14:35:29.306Z,2.40
2018-09-26T14:37:57.525Z,2.90
2018-09-26T14:40:25.528Z,3.83
2018-09-26T14:42:53.612Z,2.52
2018-09-26T14:45:21.670Z,2.02
2018-09-26T14:47:49.753Z,3.05
2018-09-26T14:50:17.923Z,2.50
2018-09-26T14:52:46.265Z,2.60
2018-09-26T14:55:15.578Z,2.08
2018-09-26T14:57:43.580Z,7.97
2018-09-26T15:00:11.453Z,1.98
2018-09-26T15:02:39.709Z,3.17
2018-09-26T15:05:07.776Z,4.20
2018-09-26T15:07:35.856Z,3.50
2018-09-26T15:10:04.962Z,5.25
2018-09-26T15:12:32.950Z,11.63
2018-09-26T15:15:00.904Z,9.08
2018-09-26T15:17:28.940Z,3.42
2018-09-26T15:19:57.179Z,4.83
2018-09-26T15:22:25.119Z,5.60
2018-09-26T15:24:53.284Z,3.22
2018-09-26T15:27:21.349Z,3.50
2018-09-26T15:29:49.332Z,3.58
2018-09-26T15:32:17.725Z,4.00
2018-09-26T15:34:45.857Z,6.78
2018-09-26T15:37:13.920Z,6.47
2018-09-26T15:39:42.066Z,3.20
2018-09-26T15:42:10.045Z,3.40
2018-09-26T15:44:38.079Z,2.85
2018-09-26T15:47:06.296Z,2.87
2018-09-26T15:49:35.103Z,6.37
2018-09-26T15:52:04.320Z,2.47
2018-09-26T15:54:32.159Z,6.05
2018-09-26T15:57:00.394Z,7.05
2018-09-26T15:59:28.441Z,2.65
2018-09-26T16:01:56.459Z,8.23
2018-09-26T16:04:25.779Z,2.60
2018-09-26T16:06:53.844Z,2.42
2018-09-26T16:09:21.936Z,3.80
2018-09-26T16:11:50.020Z,3.45
2018-09-26T16:14:18.172Z,5.72
2018-09-26T16:16:48.184Z,2.77
2018-09-26T16:19:16.415Z,2.33
2018-09-26T16:21:44.427Z,5.60
2018-09-26T16:24:12.589Z,5.53
2018-09-26T16:26:42.630Z,3.83
2018-09-26T16:29:11.714Z,3.33
2018-09-26T16:31:39.869Z,6.00
2018-09-26T16:34:07.909Z,2.87
2018-09-26T16:36:35.959Z,3.52
2018-09-26T16:39:05.912Z,4.03
2018-09-26T16:41:33.925Z,5.12
2018-09-26T16:44:02.005Z,4.35
2018-09-26T16:46:30.120Z,3.45
2018-09-26T16:48:58.168Z,5.10
2018-09-26T16:51:26.596Z,3.92
2018-09-26T16:53:54.598Z,4.30
2018-09-26T16:56:22.714Z,6.62
2018-09-26T16:58:50.773Z,8.08
2018-09-26T17:01:19.216Z,8.13
2018-09-26T17:03:47.493Z,5.65
2018-09-26T17:06:15.597Z,4.00
2018-09-26T17:08:43.688Z,3.75
2018-09-26T17:11:12.439Z,4.75
2018-09-26T17:13:40.301Z,4.65
2018-09-26T17:16:09.391Z,4.60
2018-09-26T17:18:37.447Z,4.83
2018-09-26T17:21:05.596Z,5.83
2018-09-26T17:23:33.585Z,4.53
2018-09-26T17:26:01.591Z,7.15
2018-09-26T17:28:29.760Z,6.25
2018-09-26T17:30:57.935Z,3.85
2018-09-26T17:33:26.168Z,5.12
2018-09-26T17:35:54.230Z,3.70
2018-09-26T17:38:22.235Z,4.50
2018-09-26T17:40:50.203Z,4.75
2018-09-26T17:43:18.079Z,7.10
2018-09-26T17:45:46.233Z,4.30
2018-09-26T17:48:14.373Z,6.08
2018-09-26T17:50:42.443Z,5.20
2018-09-26T17:53:10.801Z,5.53
2018-09-26T17:55:38.864Z,7.33
2018-09-26T17:58:06.966Z,6.90
2018-09-26T18:00:34.867Z,6.08
2018-09-26T18:03:03.027Z,5.50
2018-09-26T18:05:31.004Z,4.95
2018-09-26T18:07:59.067Z,5.78
2018-09-26T18:10:27.281Z,5.12
2018-09-26T18:12:55.387Z,7.60
2018-09-26T18:15:23.395Z,6.03
2018-09-26T18:17:51.351Z,5.75
2018-09-26T18:20:19.549Z,8.53
2018-09-26T18:22:47.524Z,6.72
2018-09-26T18:25:15.568Z,8.75
2018-09-26T18:27:47.133Z,7.60
2018-09-26T18:30:15.223Z,7.85
2018-09-26T18:32:43.191Z,7.92
2018-09-26T18:35:11.340Z,8.30
2018-09-26T18:37:39.387Z,8.60
2018-09-26T18:40:07.485Z,7.15
2018-09-26T18:42:35.536Z,7.22
2018-09-26T18:45:03.987Z,7.20
2018-09-26T18:47:32.081Z,7.60
2018-09-26T18:50:00.409Z,8.50
2018-09-26T18:52:28.461Z,9.45
2018-09-26T18:54:56.534Z,8.90
2018-09-26T18:57:24.609Z,10.78
2018-09-26T18:59:53.939Z,8.93
2018-09-26T19:02:21.993Z,8.53
2018-09-26T19:04:50.046Z,8.10
2018-09-26T19:07:18.952Z,10.13
2018-09-26T19:09:47.091Z,9.60
2018-09-26T19:12:15.241Z,11.75
2018-09-26T19:14:43.252Z,8.15
2018-09-26T19:17:11.313Z,7.12
2018-09-26T19:19:39.266Z,8.73
2018-09-26T19:22:07.695Z,7.50
2018-09-26T19:24:36.731Z,11.20
2018-09-26T19:27:04.893Z,8.25
2018-09-26T19:29:32.860Z,7.37
2018-09-26T19:32:00.902Z,8.68
2018-09-26T19:34:29.347Z,6.75
2018-09-26T19:36:57.418Z,6.10
2018-09-26T19:39:25.608Z,6.53
2018-09-26T19:41:53.884Z,9.18
2018-09-26T19:44:23.228Z,11.43
2018-09-26T19:46:51.196Z,7.15
2018-09-26T19:49:19.308Z,9.98
2018-09-26T19:51:47.377Z,6.87
2018-09-26T19:54:17.593Z,7.12
2018-09-26T19:56:45.701Z,6.37
2018-09-26T19:59:13.656Z,10.70
2018-09-26T20:01:41.832Z,6.10
2018-09-26T20:04:09.784Z,7.05
2018-09-26T20:06:37.958Z,6.67
2018-09-26T20:09:08.845Z,6.95
2018-09-26T20:11:36.922Z,5.97
2018-09-26T20:14:04.974Z,7.45
2018-09-26T20:16:33.110Z,7.37
2018-09-26T20:19:01.025Z,7.97
2018-09-26T20:21:29.000Z,7.35
2018-09-26T20:23:57.346Z,6.58
2018-09-26T20:26:26.413Z,5.55
2018-09-26T20:28:54.908Z,6.20
2018-09-26T20:31:22.988Z,5.42
2018-09-26T20:33:51.059Z,6.72
2018-09-26T20:36:19.418Z,6.53
2018-09-26T20:38:48.665Z,7.05
2018-09-26T20:41:16.813Z,12.50
2018-09-26T20:43:44.852Z,6.55
2018-09-26T20:46:12.904Z,7.30
2018-09-26T20:48:44.397Z,6.78
2018-09-26T20:51:12.343Z,6.40
2018-09-26T20:53:41.433Z,6.67
2018-09-26T20:56:09.503Z,6.35
2018-09-26T20:58:37.624Z,5.78
2018-09-26T21:01:06.021Z,7.37
2018-09-26T21:03:33.999Z,6.58
2018-09-26T21:06:02.099Z,6.42
2018-09-26T21:08:30.243Z,6.90
2018-09-26T21:10:58.152Z,5.92
2018-09-26T21:13:25.911Z,5.17
2018-09-26T21:15:54.114Z,6.12
2018-09-26T21:18:22.182Z,7.03
2018-09-26T21:20:50.152Z,6.65
2018-09-26T21:23:18.618Z,6.05
2018-09-26T21:25:46.716Z,6.97
2018-09-26T21:28:14.736Z,5.60
2018-09-26T21:30:42.842Z,10.05
2018-09-26T21:33:10.891Z,6.00
2018-09-26T21:35:38.960Z,5.55
2018-09-26T21:38:07.074Z,7.53
2018-09-26T21:40:35.096Z,6.25
2018-09-26T21:43:03.563Z,5.95
2018-09-26T21:45:31.540Z,8.60
2018-09-26T21:47:59.520Z,6.12
2018-09-26T21:50:27.724Z,7.50
2018-09-26T21:52:55.659Z,8.63
2018-09-26T21:55:23.895Z,7.05
2018-09-26T21:57:51.939Z,7.40
2018-09-26T22:00:20.106Z,7.12
2018-09-26T22:02:48.381Z,5.95
2018-09-26T22:05:16.483Z,6.80
2018-09-26T22:07:44.493Z,5.83
2018-09-26T22:10:12.568Z,5.15
2018-09-26T22:12:40.587Z,5.75
2018-09-26T22:15:12.580Z,5.28
2018-09-26T22:17:40.853Z,5.67
2018-09-26T22:20:08.605Z,5.05
2018-09-26T22:22:36.613Z,4.75
2018-09-26T22:25:04.734Z,6.05
2018-09-26T22:27:32.715Z,5.30
2018-09-26T22:30:00.820Z,4.90
2018-09-26T22:32:28.900Z,5.05
2018-09-26T22:34:57.009Z,4.92
2018-09-26T22:37:24.967Z,5.05
2018-09-26T22:39:53.145Z,5.30
2018-09-26T22:42:21.549Z,5.67
2018-09-26T22:44:49.526Z,5.08
2018-09-26T22:47:18.545Z,5.17
2018-09-26T22:49:46.691Z,6.87
2018-09-26T22:52:14.686Z,5.67
2018-09-26T22:54:42.833Z,6.10
2018-09-26T22:57:11.277Z,5.70
2018-09-26T22:59:39.176Z,6.05
2018-09-26T23:02:07.328Z,6.60
2018-09-26T23:04:35.361Z,6.70
2018-09-26T23:07:03.501Z,6.95
2018-09-26T23:09:31.458Z,5.65
2018-09-26T23:11:59.957Z,7.53
2018-09-26T23:14:29.187Z,6.67
2018-09-26T23:16:57.467Z,7.05
2018-09-26T23:19:25.960Z,7.62
2018-09-26T23:21:54.043Z,9.08
2018-09-26T23:24:22.049Z,8.78
2018-09-26T23:26:50.016Z,7.55
2018-09-26T23:29:18.304Z,8.25
2018-09-26T23:31:46.312Z,8.70
2018-09-26T23:34:15.588Z,8.43
2018-09-26T23:36:43.698Z,6.85
2018-09-26T23:39:11.797Z,6.30
2018-09-26T23:41:39.987Z,7.10
2018-09-26T23:44:08.160Z,6.03
2018-09-26T23:46:36.268Z,7.30
2018-09-26T23:49:04.381Z,7.85
2018-09-26T23:51:32.398Z,5.95
2018-09-26T23:54:00.949Z,7.28
2018-09-26T23:56:29.548Z,7.28
2018-09-26T23:58:58.241Z,8.43
